sensor_id;sensor_type;location;lat;lon;timestamp;temperature;humidity
17425;DHT22;8830;50.978;5.058;2022-08-05T00:02:24;20.60;99.90
17425;DHT22;8830;50.978;5.058;2022-08-05T00:04:51;20.60;99.90
17425;DHT22;8830;50.978;5.058;2022-08-05T00:07:18;20.50;99.90
17425;DHT22;8830;50.978;5.058;2022-08-05T00:09:45;20.60;99.90
17425;DHT22;8830;50.978;5.058;2022-08-05T00:12:12;20.60;99.90
17425;DHT22;8830;50.978;5.058;2022-08-05T00:17:09;20.40;99.90
17425;DHT22;8830;50.978;5.058;2022-08-05T00:19:36;20.40;99.90
17425;DHT22;8830;50.978;5.058;2022-08-05T00:22:03;20.40;99.90
17425;DHT22;8830;50.978;5.058;2022-08-05T00:24:30;20.40;99.90
17425;DHT22;8830;50.978;5.058;2022-08-05T00:26:57;20.40;99.90
17425;DHT22;8830;50.978;5.058;2022-08-05T00:29:25;20.40;99.90
17425;DHT22;8830;50.978;5.058;2022-08-05T00:31:54;20.40;99.90
17425;DHT22;8830;50.978;5.058;2022-08-05T00:34:22;20.50;99.90
17425;DHT22;8830;50.978;5.058;2022-08-05T00:36:49;20.50;99.90
17425;DHT22;8830;50.978;5.058;2022-08-05T00:39:16;20.50;99.90
17425;DHT22;8830;50.978;5.058;2022-08-05T00:41:45;20.50;99.90
17425;DHT22;8830;50.978;5.058;2022-08-05T00:44:12;20.60;99.90
17425;DHT22;8830;50.978;5.058;2022-08-05T00:46:39;17.10;99.90
17425;DHT22;8830;50.978;5.058;2022-08-05T00:49:08;20.60;99.90
17425;DHT22;8830;50.978;5.058;2022-08-05T00:51:35;20.50;99.90
17425;DHT22;8830;50.978;5.058;2022-08-05T00:54:03;20.50;99.90
17425;DHT22;8830;50.978;5.058;2022-08-05T00:56:30;20.60;99.90
17425;DHT22;8830;50.978;5.058;2022-08-05T00:58:57;20.60;99.90
17425;DHT22;8830;50.978;5.058;2022-08-05T01:01:24;20.50;99.90
17425;DHT22;8830;50.978;5.058;2022-08-05T01:03:51;20.50;99.90
17425;DHT22;8830;50.978;5.058;2022-08-05T01:06:20;20.50;99.90
17425;DHT22;8830;50.978;5.058;2022-08-05T01:08:47;20.40;99.90
17425;DHT22;8830;50.978;5.058;2022-08-05T01:11:17;20.40;99.90
17425;DHT22;8830;50.978;5.058;2022-08-05T01:13:49;20.40;99.90
17425;DHT22;8830;50.978;5.058;2022-08-05T01:16:24;20.50;99.90
17425;DHT22;8830;50.978;5.058;2022-08-05T01:18:58;20.40;99.90
17425;DHT22;8830;50.978;5.058;2022-08-05T01:24:39;20.20;99.90
17425;DHT22;8830;50.978;5.058;2022-08-05T01:27:19;20.10;99.90
17425;DHT22;8830;50.978;5.058;2022-08-05T01:29:55;19.80;99.90
17425;DHT22;8830;50.978;5.058;2022-08-05T01:32:26;19.50;99.90
17425;DHT22;8830;50.978;5.058;2022-08-05T01:34:57;19.50;99.90
17425;DHT22;8830;50.978;5.058;2022-08-05T01:37:28;19.40;99.90
17425;DHT22;8830;50.978;5.058;2022-08-05T01:39:57;19.30;99.90
17425;DHT22;8830;50.978;5.058;2022-08-05T01:42:26;19.10;99.90
17425;DHT22;8830;50.978;5.058;2022-08-05T01:44:58;19.10;99.90
17425;DHT22;8830;50.978;5.058;2022-08-05T01:47:27;19.10;99.90
17425;DHT22;8830;50.978;5.058;2022-08-05T01:49:57;19.10;99.90
17425;DHT22;8830;50.978;5.058;2022-08-05T01:52:27;18.90;99.90
17425;DHT22;8830;50.978;5.058;2022-08-05T01:54:58;19.00;99.90
17425;DHT22;8830;50.978;5.058;2022-08-05T01:57:30;18.90;99.90
17425;DHT22;8830;50.978;5.058;2022-08-05T02:00:02;19.20;99.90
17425;DHT22;8830;50.978;5.058;2022-08-05T02:02:31;19.20;99.90
17425;DHT22;8830;50.978;5.058;2022-08-05T02:05:03;19.30;99.90
17425;DHT22;8830;50.978;5.058;2022-08-05T02:07:33;19.30;99.90
17425;DHT22;8830;50.978;5.058;2022-08-05T02:10:01;19.30;99.90
17425;DHT22;8830;50.978;5.058;2022-08-05T02:12:35;19.30;99.90
17425;DHT22;8830;50.978;5.058;2022-08-05T02:15:08;19.40;99.90
17425;DHT22;8830;50.978;5.058;2022-08-05T02:17:40;22.30;99.90
17425;DHT22;8830;50.978;5.058;2022-08-05T02:20:16;19.40;99.90
17425;DHT22;8830;50.978;5.058;2022-08-05T02:22:46;19.30;99.90
17425;DHT22;8830;50.978;5.058;2022-08-05T02:25:17;19.30;99.90
17425;DHT22;8830;50.978;5.058;2022-08-05T02:30:15;19.40;99.90
17425;DHT22;8830;50.978;5.058;2022-08-05T02:32:46;19.40;99.90
17425;DHT22;8830;50.978;5.058;2022-08-05T02:35:18;19.40;99.90
17425;DHT22;8830;50.978;5.058;2022-08-05T02:37:45;19.40;99.90
17425;DHT22;8830;50.978;5.058;2022-08-05T02:40:15;19.50;99.90
17425;DHT22;8830;50.978;5.058;2022-08-05T02:42:44;19.50;99.90
17425;DHT22;8830;50.978;5.058;2022-08-05T02:45:12;19.60;99.90
17425;DHT22;8830;50.978;5.058;2022-08-05T02:47:42;19.50;99.90
17425;DHT22;8830;50.978;5.058;2022-08-05T02:50:11;19.50;99.90
17425;DHT22;8830;50.978;5.058;2022-08-05T02:52:40;19.50;99.90
17425;DHT22;8830;50.978;5.058;2022-08-05T02:55:08;19.50;99.90
17425;DHT22;8830;50.978;5.058;2022-08-05T02:57:37;19.50;99.90
17425;DHT22;8830;50.978;5.058;2022-08-05T03:02:35;19.60;99.90
17425;DHT22;8830;50.978;5.058;2022-08-05T03:05:07;19.60;99.90
17425;DHT22;8830;50.978;5.058;2022-08-05T03:07:35;19.60;99.90
17425;DHT22;8830;50.978;5.058;2022-08-05T03:10:03;19.70;99.90
17425;DHT22;8830;50.978;5.058;2022-08-05T03:12:31;19.70;99.90
17425;DHT22;8830;50.978;5.058;2022-08-05T03:14:59;19.60;99.90
17425;DHT22;8830;50.978;5.058;2022-08-05T03:17:26;19.70;99.90
17425;DHT22;8830;50.978;5.058;2022-08-05T03:19:54;19.80;99.90
17425;DHT22;8830;50.978;5.058;2022-08-05T03:22:23;19.80;99.90
17425;DHT22;8830;50.978;5.058;2022-08-05T03:24:51;19.70;99.90
17425;DHT22;8830;50.978;5.058;2022-08-05T03:27:18;19.60;99.90
17425;DHT22;8830;50.978;5.058;2022-08-05T03:29:46;19.70;99.90
17425;DHT22;8830;50.978;5.058;2022-08-05T03:32:14;19.60;99.90
17425;DHT22;8830;50.978;5.058;2022-08-05T03:34:42;19.60;99.90
17425;DHT22;8830;50.978;5.058;2022-08-05T03:39:51;19.50;99.90
17425;DHT22;8830;50.978;5.058;2022-08-05T03:42:18;19.50;99.90
17425;DHT22;8830;50.978;5.058;2022-08-05T03:44:47;19.60;99.90
17425;DHT22;8830;50.978;5.058;2022-08-05T03:47:15;19.60;99.90
17425;DHT22;8830;50.978;5.058;2022-08-05T03:49:42;19.50;99.90
17425;DHT22;8830;50.978;5.058;2022-08-05T03:52:11;19.50;99.90
17425;DHT22;8830;50.978;5.058;2022-08-05T03:54:51;19.60;99.90
17425;DHT22;8830;50.978;5.058;2022-08-05T03:57:22;19.60;99.90
17425;DHT22;8830;50.978;5.058;2022-08-05T03:59:55;19.50;99.90
17425;DHT22;8830;50.978;5.058;2022-08-05T04:02:27;19.50;99.90
17425;DHT22;8830;50.978;5.058;2022-08-05T04:04:56;19.50;99.90
17425;DHT22;8830;50.978;5.058;2022-08-05T04:07:24;19.50;99.90
17425;DHT22;8830;50.978;5.058;2022-08-05T04:09:54;19.40;99.90
17425;DHT22;8830;50.978;5.058;2022-08-05T04:14:58;19.30;99.90
17425;DHT22;8830;50.978;5.058;2022-08-05T04:17:26;19.30;99.90
17425;DHT22;8830;50.978;5.058;2022-08-05T04:22:22;19.20;99.90
17425;DHT22;8830;50.978;5.058;2022-08-05T04:24:49;19.20;99.90
17425;DHT22;8830;50.978;5.058;2022-08-05T04:27:19;19.20;99.90
17425;DHT22;8830;50.978;5.058;2022-08-05T04:29:48;19.20;99.90
17425;DHT22;8830;50.978;5.058;2022-08-05T04:32:15;19.20;99.90
17425;DHT22;8830;50.978;5.058;2022-08-05T04:34:43;19.20;99.90
17425;DHT22;8830;50.978;5.058;2022-08-05T04:37:10;19.20;99.90
17425;DHT22;8830;50.978;5.058;2022-08-05T04:39:38;19.10;99.90
17425;DHT22;8830;50.978;5.058;2022-08-05T04:47:02;18.90;99.90
17425;DHT22;8830;50.978;5.058;2022-08-05T04:49:29;19.00;99.90
17425;DHT22;8830;50.978;5.058;2022-08-05T04:51:56;19.00;99.90
17425;DHT22;8830;50.978;5.058;2022-08-05T04:54:24;19.00;99.90
17425;DHT22;8830;50.978;5.058;2022-08-05T04:56:52;19.10;99.90
17425;DHT22;8830;50.978;5.058;2022-08-05T05:01:48;17.90;99.90
17425;DHT22;8830;50.978;5.058;2022-08-05T05:04:15;19.10;99.90
17425;DHT22;8830;50.978;5.058;2022-08-05T05:06:42;19.10;99.90
17425;DHT22;8830;50.978;5.058;2022-08-05T05:09:10;19.20;99.90
17425;DHT22;8830;50.978;5.058;2022-08-05T05:11:37;19.20;99.90
17425;DHT22;8830;50.978;5.058;2022-08-05T05:14:04;19.20;99.90
17425;DHT22;8830;50.978;5.058;2022-08-05T05:16:31;19.20;99.90
17425;DHT22;8830;50.978;5.058;2022-08-05T05:19:00;19.20;99.90
17425;DHT22;8830;50.978;5.058;2022-08-05T05:21:27;19.20;99.90
17425;DHT22;8830;50.978;5.058;2022-08-05T05:23:54;19.20;99.90
17425;DHT22;8830;50.978;5.058;2022-08-05T05:26:21;19.10;99.90
17425;DHT22;8830;50.978;5.058;2022-08-05T05:28:48;19.10;99.90
17425;DHT22;8830;50.978;5.058;2022-08-05T05:31:15;19.10;99.90
17425;DHT22;8830;50.978;5.058;2022-08-05T05:33:42;19.10;99.90
17425;DHT22;8830;50.978;5.058;2022-08-05T05:38:38;19.20;99.90
17425;DHT22;8830;50.978;5.058;2022-08-05T05:48:28;19.10;99.90
17425;DHT22;8830;50.978;5.058;2022-08-05T05:50:55;19.20;99.90
17425;DHT22;8830;50.978;5.058;2022-08-05T05:58:19;19.20;99.90
17425;DHT22;8830;50.978;5.058;2022-08-05T06:00:46;19.20;99.90
17425;DHT22;8830;50.978;5.058;2022-08-05T06:03:13;19.20;99.90
17425;DHT22;8830;50.978;5.058;2022-08-05T06:05:40;19.20;99.90
17425;DHT22;8830;50.978;5.058;2022-08-05T06:08:07;19.30;99.90
17425;DHT22;8830;50.978;5.058;2022-08-05T06:10:36;19.40;99.90
17425;DHT22;8830;50.978;5.058;2022-08-05T06:13:03;19.40;99.90
17425;DHT22;8830;50.978;5.058;2022-08-05T06:15:31;19.50;99.90
17425;DHT22;8830;50.978;5.058;2022-08-05T06:20:25;19.50;99.90
17425;DHT22;8830;50.978;5.058;2022-08-05T06:22:52;19.60;99.90
17425;DHT22;8830;50.978;5.058;2022-08-05T06:27:48;19.40;99.90
17425;DHT22;8830;50.978;5.058;2022-08-05T06:32:43;19.80;99.90
17425;DHT22;8830;50.978;5.058;2022-08-05T06:35:10;19.80;99.90
17425;DHT22;8830;50.978;5.058;2022-08-05T06:37:37;19.80;99.90
17425;DHT22;8830;50.978;5.058;2022-08-05T06:40:05;19.90;99.90
17425;DHT22;8830;50.978;5.058;2022-08-05T06:42:32;19.80;99.90
17425;DHT22;8830;50.978;5.058;2022-08-05T06:49:56;20.00;99.90
17425;DHT22;8830;50.978;5.058;2022-08-05T06:52:23;20.10;99.90
17425;DHT22;8830;50.978;5.058;2022-08-05T06:54:50;20.20;99.90
17425;DHT22;8830;50.978;5.058;2022-08-05T06:57:17;20.20;99.90
17425;DHT22;8830;50.978;5.058;2022-08-05T06:59:44;20.20;99.90
17425;DHT22;8830;50.978;5.058;2022-08-05T07:02:12;20.20;99.90
17425;DHT22;8830;50.978;5.058;2022-08-05T07:04:40;20.10;99.90
17425;DHT22;8830;50.978;5.058;2022-08-05T07:09:34;20.10;99.90
17425;DHT22;8830;50.978;5.058;2022-08-05T07:12:01;20.10;99.90
17425;DHT22;8830;50.978;5.058;2022-08-05T07:14:28;20.40;99.90
17425;DHT22;8830;50.978;5.058;2022-08-05T07:17:14;20.50;99.90
17425;DHT22;8830;50.978;5.058;2022-08-05T07:19:41;20.80;99.90
17425;DHT22;8830;50.978;5.058;2022-08-05T07:22:08;21.00;99.90
17425;DHT22;8830;50.978;5.058;2022-08-05T07:24:36;21.30;99.90
17425;DHT22;8830;50.978;5.058;2022-08-05T07:27:04;21.40;99.90
17425;DHT22;8830;50.978;5.058;2022-08-05T07:29:31;21.30;99.90
17425;DHT22;8830;50.978;5.058;2022-08-05T07:31:59;21.30;99.90
17425;DHT22;8830;50.978;5.058;2022-08-05T07:36:55;22.80;99.90
17425;DHT22;8830;50.978;5.058;2022-08-05T07:39:22;21.80;99.90
17425;DHT22;8830;50.978;5.058;2022-08-05T07:41:49;22.10;99.90
17425;DHT22;8830;50.978;5.058;2022-08-05T07:44:17;22.50;99.90
17425;DHT22;8830;50.978;5.058;2022-08-05T07:46:44;22.80;99.90
17425;DHT22;8830;50.978;5.058;2022-08-05T07:54:08;24.60;99.90
17425;DHT22;8830;50.978;5.058;2022-08-05T07:59:03;24.40;99.90
17425;DHT22;8830;50.978;5.058;2022-08-05T08:01:30;23.50;99.90
17425;DHT22;8830;50.978;5.058;2022-08-05T08:06:26;23.80;99.90
17425;DHT22;8830;50.978;5.058;2022-08-05T08:11:23;26.50;99.90
17425;DHT22;8830;50.978;5.058;2022-08-05T08:18:46;26.40;99.90
17425;DHT22;8830;50.978;5.058;2022-08-05T08:21:13;26.50;99.90
17425;DHT22;8830;50.978;5.058;2022-08-05T08:23:40;26.70;99.90
17425;DHT22;8830;50.978;5.058;2022-08-05T08:26:09;26.80;99.90
17425;DHT22;8830;50.978;5.058;2022-08-05T08:28:37;26.80;99.90
17425;DHT22;8830;50.978;5.058;2022-08-05T08:31:05;26.80;99.90
17425;DHT22;8830;50.978;5.058;2022-08-05T08:33:32;26.40;99.90
17425;DHT22;8830;50.978;5.058;2022-08-05T08:35:59;26.30;99.90
17425;DHT22;8830;50.978;5.058;2022-08-05T08:38:27;26.00;99.90
17425;DHT22;8830;50.978;5.058;2022-08-05T08:43:24;25.70;99.90
17425;DHT22;8830;50.978;5.058;2022-08-05T08:45:53;25.30;99.90
17425;DHT22;8830;50.978;5.058;2022-08-05T08:50:49;25.10;99.90
17425;DHT22;8830;50.978;5.058;2022-08-05T08:53:18;25.00;99.90
17425;DHT22;8830;50.978;5.058;2022-08-05T08:55:46;24.60;99.90
17425;DHT22;8830;50.978;5.058;2022-08-05T08:58:19;24.50;99.90
17425;DHT22;8830;50.978;5.058;2022-08-05T09:00:47;25.10;99.90
17425;DHT22;8830;50.978;5.058;2022-08-05T09:08:11;25.90;99.90
17425;DHT22;8830;50.978;5.058;2022-08-05T09:10:39;25.80;99.90
17425;DHT22;8830;50.978;5.058;2022-08-05T09:13:12;27.80;99.90
17425;DHT22;8830;50.978;5.058;2022-08-05T09:15:40;27.80;99.90
17425;DHT22;8830;50.978;5.058;2022-08-05T09:18:09;28.40;99.90
17425;DHT22;8830;50.978;5.058;2022-08-05T09:23:10;26.10;99.90
17425;DHT22;8830;50.978;5.058;2022-08-05T09:25:39;26.00;99.90
17425;DHT22;8830;50.978;5.058;2022-08-05T09:28:26;25.70;99.90
17425;DHT22;8830;50.978;5.058;2022-08-05T09:30:56;25.40;99.90
17425;DHT22;8830;50.978;5.058;2022-08-05T09:33:28;25.20;99.90
17425;DHT22;8830;50.978;5.058;2022-08-05T09:35:56;25.40;99.90
17425;DHT22;8830;50.978;5.058;2022-08-05T09:38:25;25.40;99.90
17425;DHT22;8830;50.978;5.058;2022-08-05T09:41:01;25.70;99.90
17425;DHT22;8830;50.978;5.058;2022-08-05T09:43:31;25.90;99.90
17425;DHT22;8830;50.978;5.058;2022-08-05T09:46:04;26.00;99.90
17425;DHT22;8830;50.978;5.058;2022-08-05T09:48:38;26.00;99.90
17425;DHT22;8830;50.978;5.058;2022-08-05T09:51:07;25.30;99.90
17425;DHT22;8830;50.978;5.058;2022-08-05T09:53:47;25.30;99.90
17425;DHT22;8830;50.978;5.058;2022-08-05T09:56:23;25.30;99.90
17425;DHT22;8830;50.978;5.058;2022-08-05T09:58:58;25.50;99.90
17425;DHT22;8830;50.978;5.058;2022-08-05T10:01:25;25.80;99.90
17425;DHT22;8830;50.978;5.058;2022-08-05T10:03:59;26.30;99.90
17425;DHT22;8830;50.978;5.058;2022-08-05T10:09:09;26.30;99.90
17425;DHT22;8830;50.978;5.058;2022-08-05T10:11:37;26.00;99.90
17425;DHT22;8830;50.978;5.058;2022-08-05T10:14:22;25.60;99.90
17425;DHT22;8830;50.978;5.058;2022-08-05T10:16:54;25.50;99.90
17425;DHT22;8830;50.978;5.058;2022-08-05T10:19:25;24.50;99.90
17425;DHT22;8830;50.978;5.058;2022-08-05T10:21:56;24.40;99.90
17425;DHT22;8830;50.978;5.058;2022-08-05T10:24:23;24.30;99.90
17425;DHT22;8830;50.978;5.058;2022-08-05T10:31:48;24.00;99.90
17425;DHT22;8830;50.978;5.058;2022-08-05T10:34:17;23.90;99.90
17425;DHT22;8830;50.978;5.058;2022-08-05T10:36:51;24.10;99.90
17425;DHT22;8830;50.978;5.058;2022-08-05T10:39:24;24.60;99.90
17425;DHT22;8830;50.978;5.058;2022-08-05T10:41:58;24.90;99.90
17425;DHT22;8830;50.978;5.058;2022-08-05T10:44:28;25.10;99.90
17425;DHT22;8830;50.978;5.058;2022-08-05T10:46:59;25.30;99.90
17425;DHT22;8830;50.978;5.058;2022-08-05T10:50:04;25.30;99.90
17425;DHT22;8830;50.978;5.058;2022-08-05T10:52:40;25.10;99.90
17425;DHT22;8830;50.978;5.058;2022-08-05T10:55:11;25.10;99.90
17425;DHT22;8830;50.978;5.058;2022-08-05T10:57:40;25.10;99.90
17425;DHT22;8830;50.978;5.058;2022-08-05T11:00:10;25.20;99.90
17425;DHT22;8830;50.978;5.058;2022-08-05T11:02:37;25.60;99.90
17425;DHT22;8830;50.978;5.058;2022-08-05T11:07:59;25.40;99.90
17425;DHT22;8830;50.978;5.058;2022-08-05T11:10:27;25.20;99.90
17425;DHT22;8830;50.978;5.058;2022-08-05T11:12:55;25.10;99.90
17425;DHT22;8830;50.978;5.058;2022-08-05T11:15:24;25.00;99.90
17425;DHT22;8830;50.978;5.058;2022-08-05T11:18:06;25.10;99.90
17425;DHT22;8830;50.978;5.058;2022-08-05T11:20:41;25.40;99.90
17425;DHT22;8830;50.978;5.058;2022-08-05T11:23:39;25.70;99.90
17425;DHT22;8830;50.978;5.058;2022-08-05T11:26:10;25.80;99.90
17425;DHT22;8830;50.978;5.058;2022-08-05T11:28:51;26.50;99.90
17425;DHT22;8830;50.978;5.058;2022-08-05T11:31:29;26.50;99.90
17425;DHT22;8830;50.978;5.058;2022-08-05T11:34:11;26.90;99.90
17425;DHT22;8830;50.978;5.058;2022-08-05T11:36:51;26.30;99.90
17425;DHT22;8830;50.978;5.058;2022-08-05T11:39:49;25.80;99.90
17425;DHT22;8830;50.978;5.058;2022-08-05T11:42:22;25.60;99.90
17425;DHT22;8830;50.978;5.058;2022-08-05T11:44:53;25.30;99.90
17425;DHT22;8830;50.978;5.058;2022-08-05T11:47:35;25.30;99.90
17425;DHT22;8830;50.978;5.058;2022-08-05T12:10:31;26.00;99.90
17425;DHT22;8830;50.978;5.058;2022-08-05T12:18:26;26.20;99.90
17425;DHT22;8830;50.978;5.058;2022-08-05T12:21:25;26.30;99.90
17425;DHT22;8830;50.978;5.058;2022-08-05T12:24:02;26.40;99.90
17425;DHT22;8830;50.978;5.058;2022-08-05T12:26:45;26.50;99.90
17425;DHT22;8830;50.978;5.058;2022-08-05T12:29:22;26.70;99.90
17425;DHT22;8830;50.978;5.058;2022-08-05T12:31:53;26.90;99.90
17425;DHT22;8830;50.978;5.058;2022-08-05T12:34:27;26.90;99.90
17425;DHT22;8830;50.978;5.058;2022-08-05T12:36:59;26.70;99.90
17425;DHT22;8830;50.978;5.058;2022-08-05T12:39:40;26.70;99.90
17425;DHT22;8830;50.978;5.058;2022-08-05T12:42:10;26.30;99.90
17425;DHT22;8830;50.978;5.058;2022-08-05T12:45:01;26.10;99.90
17425;DHT22;8830;50.978;5.058;2022-08-05T12:50:15;25.70;99.90
17425;DHT22;8830;50.978;5.058;2022-08-05T12:53:18;25.70;99.90
17425;DHT22;8830;50.978;5.058;2022-08-05T12:55:48;25.30;99.90
17425;DHT22;8830;50.978;5.058;2022-08-05T12:58:30;25.10;99.90
17425;DHT22;8830;50.978;5.058;2022-08-05T13:01:20;25.20;99.90
17425;DHT22;8830;50.978;5.058;2022-08-05T13:04:04;25.40;99.90
17425;DHT22;8830;50.978;5.058;2022-08-05T13:06:57;25.40;99.90
17425;DHT22;8830;50.978;5.058;2022-08-05T13:09:53;25.60;99.90
17425;DHT22;8830;50.978;5.058;2022-08-05T13:12:39;25.60;99.90
17425;DHT22;8830;50.978;5.058;2022-08-05T13:15:12;26.00;99.90
17425;DHT22;8830;50.978;5.058;2022-08-05T13:18:02;26.00;99.90
17425;DHT22;8830;50.978;5.058;2022-08-05T13:23:39;26.40;99.90
17425;DHT22;8830;50.978;5.058;2022-08-05T13:26:21;26.40;99.90
17425;DHT22;8830;50.978;5.058;2022-08-05T13:28:58;26.30;99.90
17425;DHT22;8830;50.978;5.058;2022-08-05T13:31:34;26.10;99.90
17425;DHT22;8830;50.978;5.058;2022-08-05T13:34:13;26.10;99.90
17425;DHT22;8830;50.978;5.058;2022-08-05T13:39:13;26.10;99.90
17425;DHT22;8830;50.978;5.058;2022-08-05T13:42:09;26.00;99.90
17425;DHT22;8830;50.978;5.058;2022-08-05T13:44:55;26.00;99.90
17425;DHT22;8830;50.978;5.058;2022-08-05T13:47:37;25.90;99.90
17425;DHT22;8830;50.978;5.058;2022-08-05T13:50:20;25.90;99.90
17425;DHT22;8830;50.978;5.058;2022-08-05T13:55:28;26.00;99.90
17425;DHT22;8830;50.978;5.058;2022-08-05T13:58:01;26.00;99.90
17425;DHT22;8830;50.978;5.058;2022-08-05T14:00:48;25.80;99.90
17425;DHT22;8830;50.978;5.058;2022-08-05T14:06:21;25.80;99.90
17425;DHT22;8830;50.978;5.058;2022-08-05T14:09:15;25.20;99.90
17425;DHT22;8830;50.978;5.058;2022-08-05T14:12:20;25.10;99.90
17425;DHT22;8830;50.978;5.058;2022-08-05T14:15:01;25.30;99.90
17425;DHT22;8830;50.978;5.058;2022-08-05T14:17:53;25.30;99.90
17425;DHT22;8830;50.978;5.058;2022-08-05T14:21:02;25.30;99.90
17425;DHT22;8830;50.978;5.058;2022-08-05T14:26:59;25.60;99.90
17425;DHT22;8830;50.978;5.058;2022-08-05T14:29:37;25.60;99.90
17425;DHT22;8830;50.978;5.058;2022-08-05T14:32:16;25.50;99.90
17425;DHT22;8830;50.978;5.058;2022-08-05T14:38:30;25.00;99.90
17425;DHT22;8830;50.978;5.058;2022-08-05T14:41:17;25.40;99.90
17425;DHT22;8830;50.978;5.058;2022-08-05T14:44:03;25.60;99.90
17425;DHT22;8830;50.978;5.058;2022-08-05T14:46:57;25.60;99.90
17425;DHT22;8830;50.978;5.058;2022-08-05T14:54:57;25.10;99.90
17425;DHT22;8830;50.978;5.058;2022-08-05T14:57:33;25.30;99.90
17425;DHT22;8830;50.978;5.058;2022-08-05T15:00:36;25.70;99.90
17425;DHT22;8830;50.978;5.058;2022-08-05T15:03:09;25.70;99.90
17425;DHT22;8830;50.978;5.058;2022-08-05T15:31:02;24.90;99.90
17425;DHT22;8830;50.978;5.058;2022-08-05T15:33:30;24.70;99.90
17425;DHT22;8830;50.978;5.058;2022-08-05T15:36:17;24.70;99.90
17425;DHT22;8830;50.978;5.058;2022-08-05T15:38:48;24.60;99.90
17425;DHT22;8830;50.978;5.058;2022-08-05T15:41:21;24.80;99.90
17425;DHT22;8830;50.978;5.058;2022-08-05T15:43:59;24.70;99.90
17425;DHT22;8830;50.978;5.058;2022-08-05T15:46:31;24.60;99.90
17425;DHT22;8830;50.978;5.058;2022-08-05T15:48:59;24.60;99.90
17425;DHT22;8830;50.978;5.058;2022-08-05T15:51:50;24.30;99.90
17425;DHT22;8830;50.978;5.058;2022-08-05T16:00:51;24.20;99.90
17425;DHT22;8830;50.978;5.058;2022-08-05T16:18:56;23.90;99.90
17425;DHT22;8830;50.978;5.058;2022-08-05T16:32:26;23.50;99.90
17425;DHT22;8830;50.978;5.058;2022-08-05T18:15:07;21.40;99.90
17425;DHT22;8830;50.978;5.058;2022-08-05T18:54:45;20.20;99.90
17425;DHT22;8830;50.978;5.058;2022-08-05T18:57:54;20.10;99.90
17425;DHT22;8830;50.978;5.058;2022-08-05T19:04:15;19.90;99.90
17425;DHT22;8830;50.978;5.058;2022-08-05T19:16:37;19.60;99.90
17425;DHT22;8830;50.978;5.058;2022-08-05T19:24:09;19.40;99.90
17425;DHT22;8830;50.978;5.058;2022-08-05T19:26:36;19.40;99.90
17425;DHT22;8830;50.978;5.058;2022-08-05T19:29:04;19.30;99.90
17425;DHT22;8830;50.978;5.058;2022-08-05T19:31:32;19.20;99.90
17425;DHT22;8830;50.978;5.058;2022-08-05T19:34:00;19.00;99.90
17425;DHT22;8830;50.978;5.058;2022-08-05T19:36:27;19.10;99.90
17425;DHT22;8830;50.978;5.058;2022-08-05T19:38:55;19.00;99.90
17425;DHT22;8830;50.978;5.058;2022-08-05T19:41:23;18.90;99.90
17425;DHT22;8830;50.978;5.058;2022-08-05T19:43:50;18.90;99.90
17425;DHT22;8830;50.978;5.058;2022-08-05T19:46:17;18.80;99.90
17425;DHT22;8830;50.978;5.058;2022-08-05T19:51:13;18.70;99.90
17425;DHT22;8830;50.978;5.058;2022-08-05T19:53:40;18.70;99.90
17425;DHT22;8830;50.978;5.058;2022-08-05T19:56:07;18.70;99.90
17425;DHT22;8830;50.978;5.058;2022-08-05T19:58:34;18.60;99.90
17425;DHT22;8830;50.978;5.058;2022-08-05T20:01:03;18.60;99.90
17425;DHT22;8830;50.978;5.058;2022-08-05T20:06:00;18.50;99.90
17425;DHT22;8830;50.978;5.058;2022-08-05T20:10:56;18.40;99.90
17425;DHT22;8830;50.978;5.058;2022-08-05T20:13:24;18.30;99.90
17425;DHT22;8830;50.978;5.058;2022-08-05T20:15:51;18.30;99.90
17425;DHT22;8830;50.978;5.058;2022-08-05T20:18:19;18.20;99.90
17425;DHT22;8830;50.978;5.058;2022-08-05T20:20:46;18.10;99.90
17425;DHT22;8830;50.978;5.058;2022-08-05T20:23:15;18.20;99.90
17425;DHT22;8830;50.978;5.058;2022-08-05T20:25:42;18.10;99.90
17425;DHT22;8830;50.978;5.058;2022-08-05T20:28:09;18.10;99.90
17425;DHT22;8830;50.978;5.058;2022-08-05T20:30:36;18.00;99.90
17425;DHT22;8830;50.978;5.058;2022-08-05T20:33:03;18.00;99.90
17425;DHT22;8830;50.978;5.058;2022-08-05T20:37:58;17.90;99.90
17425;DHT22;8830;50.978;5.058;2022-08-05T20:42:57;17.70;99.90
17425;DHT22;8830;50.978;5.058;2022-08-05T20:45:24;17.70;99.90
17425;DHT22;8830;50.978;5.058;2022-08-05T20:47:51;17.60;99.90
17425;DHT22;8830;50.978;5.058;2022-08-05T20:50:18;17.60;99.90
17425;DHT22;8830;50.978;5.058;2022-08-05T20:52:45;17.50;99.90
17425;DHT22;8830;50.978;5.058;2022-08-05T20:55:12;17.50;99.90
17425;DHT22;8830;50.978;5.058;2022-08-05T20:57:41;17.50;99.90
17425;DHT22;8830;50.978;5.058;2022-08-05T21:00:11;17.40;99.90
17425;DHT22;8830;50.978;5.058;2022-08-05T21:02:39;17.40;99.90
17425;DHT22;8830;50.978;5.058;2022-08-05T21:05:07;17.30;99.90
17425;DHT22;8830;50.978;5.058;2022-08-05T21:07:34;17.30;99.90
17425;DHT22;8830;50.978;5.058;2022-08-05T21:12:29;17.20;99.90
17425;DHT22;8830;50.978;5.058;2022-08-05T21:14:57;17.20;99.90
17425;DHT22;8830;50.978;5.058;2022-08-05T21:17:24;17.20;99.90
17425;DHT22;8830;50.978;5.058;2022-08-05T21:19:51;17.10;99.90
17425;DHT22;8830;50.978;5.058;2022-08-05T21:22:19;17.10;99.90
17425;DHT22;8830;50.978;5.058;2022-08-05T21:24:46;17.00;99.90
17425;DHT22;8830;50.978;5.058;2022-08-05T21:29:41;16.90;99.90
17425;DHT22;8830;50.978;5.058;2022-08-05T21:32:09;16.80;99.90
17425;DHT22;8830;50.978;5.058;2022-08-05T21:39:33;16.70;99.90
17425;DHT22;8830;50.978;5.058;2022-08-05T21:42:00;16.70;99.90
17425;DHT22;8830;50.978;5.058;2022-08-05T21:44:28;16.60;99.90
17425;DHT22;8830;50.978;5.058;2022-08-05T21:49:24;16.60;99.90
17425;DHT22;8830;50.978;5.058;2022-08-05T21:51:51;18.30;99.90
17425;DHT22;8830;50.978;5.058;2022-08-05T21:54:19;16.50;99.90
17425;DHT22;8830;50.978;5.058;2022-08-05T21:56:46;16.50;99.90
17425;DHT22;8830;50.978;5.058;2022-08-05T22:01:40;16.40;99.90
17425;DHT22;8830;50.978;5.058;2022-08-05T22:04:07;16.40;99.90
17425;DHT22;8830;50.978;5.058;2022-08-05T22:06:36;16.30;99.90
17425;DHT22;8830;50.978;5.058;2022-08-05T22:09:04;16.30;99.90
17425;DHT22;8830;50.978;5.058;2022-08-05T22:11:31;16.30;99.90
17425;DHT22;8830;50.978;5.058;2022-08-05T22:18:55;16.20;99.90
17425;DHT22;8830;50.978;5.058;2022-08-05T22:21:23;16.20;99.90
17425;DHT22;8830;50.978;5.058;2022-08-05T22:23:52;16.10;99.90
17425;DHT22;8830;50.978;5.058;2022-08-05T22:26:36;16.10;99.90
17425;DHT22;8830;50.978;5.058;2022-08-05T22:29:21;16.00;99.90
17425;DHT22;8830;50.978;5.058;2022-08-05T22:31:48;15.90;99.90
17425;DHT22;8830;50.978;5.058;2022-08-05T22:34:15;15.90;99.90
17425;DHT22;8830;50.978;5.058;2022-08-05T22:36:42;15.90;99.90
17425;DHT22;8830;50.978;5.058;2022-08-05T22:39:11;15.90;99.90
17425;DHT22;8830;50.978;5.058;2022-08-05T22:41:39;15.90;99.90
17425;DHT22;8830;50.978;5.058;2022-08-05T22:44:08;15.80;99.90
17425;DHT22;8830;50.978;5.058;2022-08-05T22:46:35;15.80;99.90
17425;DHT22;8830;50.978;5.058;2022-08-05T22:49:02;15.80;99.90